Ware, Iowa
Current Conditions -  °F | °C
As of 4:35 PM on Tuesday 21 Oct 2014 (Local Time) from KAXA Reporting Station
Clear Clear  
Wind Chill: 66°   Ceiling: Unl
Heat Index: 66°   Visibility: 10mi
Dew Point: 41°   Wind: 13mph
Humidity: 40%   Direction: 160°SSE
Pressure: 30.1"   Gusts: NA
Location:  42.8425°N, 94.7375°W
Report Text: KAXA 212135Z AUTO 16011KT 10SM CLR 19/05 A3010 RMK AO2
Loading
Personal Weather Stations






























Interactive Weather Map
Tropical Storm Tracking
New forecast layout! Learn more

10-Day Weather Forecast

Advertisements
Track Severe Weather on mobile